Share

Blanco, NM

Crouch Mesa (KNMAZTEC4) Elev 5797 ft | 36.77 °N, 108.06 °W | Change Station

Current weather conditions updated 0 second ago

Clear
Clear
42.8 °F
Feels Like 43 °F
N
1.6
Wind Variable Wind from West
Gusts 3.1 mph
Sunrise 6:34 AM
Sunset 7:47 PM
Moon Waning Gibbous

Today is forecast to be nearly the same temperature as yesterday.

Pressure 29.91 in
Visibility 10.0 miles
Clouds Clear
Windchill 43 °F
Dew Point 24 °F
Humidity 48%
Rainfall 0.00 in
Snow Depth Not available.
UV 0 out of 16
Pollen 9.80 out of 12
Air Quality Not available.
Flu Activity Local Activity
METAR KFMN 170653Z 28005KT 10SM CLR 05/M06 A2999 RMK AO2 SLP128 T00501061 401891033

More Conditions Fewer Conditions

Pressure 29.91 in
Visibility 10.0 miles
Clouds Clear
Windchill 43 °F
Dew Point 24 °F
Humidity 48%
Rainfall 0.00 in
Snow Depth Not available.
UV 0 out of 16
Pollen 9.80 out of 12
Air Quality Not available.
Flu Activity Local Activity
METAR KFMN 170653Z 28005KT 10SM CLR 05/M06 A2999 RMK AO2 SLP128 T00501061 401891033

More Conditions Fewer Conditions

10-Day Forecast

Almanac

Astronomy

Apr. 17, 2014 Rise Set
Actual Time 6:34 AM MDT 7:47 PM MDT
Civil Twilight 6:07 AM MDT 8:14 PM MDT
Nautical Twilight 5:35 AM MDT 8:46 PM MDT
Astronomical Twilight 5:02 AM MDT 9:19 PM MDT
Moon 10:32 PM MDT 8:11 AM MDT
Length of Visible Light 14h 06m
Length of Day
13h 13m
Tomorrow will be 2m 11s longer.
Waning Gibbous, 95% of the Moon is Illuminated
Today
Waning Gibbous
Apr 22
Last Quarter
Apr 29
New
May 6
First Quarter
May 14
Full

Today's Extremes

State Highs State Lows

Community

  • Sunset over the Bay
    Sunset over the Bay
  • symphony in blue....
    symphony in blue....
  • Dawn Surprise
    Dawn Surprise
  • Yucca delight
    Yucca delight
  • Sunset inside of the Ocean
    Sunset inside of the Ocean

WunderPhotos

Upload Photos

1,701,875 photos uploaded!

WunderBlogs® & News

Nearby

Snow Depth

Station Depth Elevation
Senorita Divide #2 0 in 8600 ft
Bateman 11 in 9300 ft
Hopewell 29 in 10000 ft
Quemazon 1 in 9500 ft
Rice Park 0 in 8460 ft

Coastal Water Temperatures

Place Temperature
No Stations Reporting

Earthquake Activity

City Distance Mag. Time & Date
No recent earthquake activity has been reported nearby.
Minimum magnitude displayed is 2.5.

Nearby Weather Stations

Station Location Temp. Windchill Dew Point Humidity Wind Precip. Elev Updated Type
Crouch Mesa, Aztec, NM 42.8 °F 43 °F 24 °F 48% West  at  1.6 mph 0.00 in / hr 5797 ft 1:13 AM MDT Rapid Fire

Show More Stations Show Fewer Stations

What do you think?

We're not finished. Please let us know what you like, what you don't like, and what you are still missing.